Iowa, Louisiana
Current Conditions -  °F | °C
As of 3:50 PM on Sunday 21 Dec 2014 (Local Time) from KCWF Reporting Station
Haze Haze  
Wind Chill: 52°   Ceiling: 700
Heat Index: 52°   Visibility: 5mi
Dew Point: 48°   Wind: 0mph
Humidity: 88%   Direction: NA
Pressure: 30"   Gusts: NA
Location:  30.24°N, 93.01°W
Report Text: KCWF 212150Z 00000KT 5SM BR OVC007 11/09 A3000
Loading
Personal Weather Stations






























Interactive Weather Map New forecast layout! Learn more

10-Day Weather Forecast

Advertisements
Track Severe Weather on mobile